Time;durP1;ratioP1;P1;durP2;ratioP2;P2;SDS_P1;SDS_P2;PMS_P1;PMS_P2;Temp;Humidity;BMP_temperature;BMP_pressure;BME280_temperature;BME280_humidity;BME280_pressure;Samples;Min_cycle;Max_cycle;Signal;HPM_P1;HPM_P2
2023/08/23 00:01:53;;;;;;;21.42;13.63;;;17.50;99.90;;;;;;4888558;29;20240;-68
2023/08/23 00:04:19;;;;;;;24.02;14.35;;;17.40;99.90;;;;;;4887481;29;20193;-68
2023/08/23 00:06:46;;;;;;;20.40;13.75;;;17.40;99.90;;;;;;4903914;29;20259;-68
2023/08/23 00:09:12;;;;;;;22.70;13.70;;;17.40;99.90;;;;;;4895060;29;20190;-67
2023/08/23 00:11:38;;;;;;;26.42;14.82;;;17.40;99.90;;;;;;4904947;29;20189;-66
2023/08/23 00:14:04;;;;;;;21.83;13.80;;;17.40;99.90;;;;;;4896739;29;20557;-67
2023/08/23 00:16:30;;;;;;;19.80;13.93;;;17.30;99.90;;;;;;4894813;29;20549;-66
2023/08/23 00:18:56;;;;;;;20.27;13.98;;;17.30;99.90;;;;;;4888939;29;20189;-67
2023/08/23 00:21:22;;;;;;;23.63;13.93;;;17.30;99.90;;;;;;4887553;29;20203;-67
2023/08/23 00:23:47;;;;;;;21.83;13.88;;;17.30;99.90;;;;;;4883097;29;20219;-66
2023/08/23 00:26:14;;;;;;;28.27;14.88;;;17.20;99.90;;;;;;4891830;29;20197;-67
2023/08/23 00:28:41;;;;;;;21.40;14.13;;;17.20;99.90;;;;;;4889313;29;20188;-66
2023/08/23 00:31:07;;;;;;;23.60;15.30;;;17.30;99.90;;;;;;4908019;29;20283;-67
2023/08/23 00:33:34;;;;;;;28.70;17.83;;;17.20;99.90;;;;;;4894138;29;20192;-68
2023/08/23 00:36:00;;;;;;;23.60;14.50;;;17.20;99.90;;;;;;4896353;29;20199;-67
2023/08/23 00:38:26;;;;;;;24.50;15.27;;;17.20;99.90;;;;;;4872433;29;20225;-65
2023/08/23 00:40:52;;;;;;;23.05;15.27;;;17.20;99.90;;;;;;4890349;29;20217;-67
2023/08/23 00:43:18;;;;;;;26.42;15.82;;;17.20;99.90;;;;;;4892215;29;20220;-67
2023/08/23 00:45:44;;;;;;;23.20;15.70;;;17.20;99.90;;;;;;4888442;29;20239;-66
2023/08/23 00:48:12;;;;;;;23.83;15.75;;;17.10;99.90;;;;;;4891117;29;20193;-68
2023/08/23 00:50:39;;;;;;;22.15;16.05;;;17.10;99.90;;;;;;4891584;29;20268;-65
2023/08/23 00:53:07;;;;;;;24.33;16.70;;;17.20;99.90;;;;;;4890406;29;20232;-68
2023/08/23 00:55:35;;;;;;;26.60;16.77;;;17.10;99.90;;;;;;4892241;29;20193;-68
2023/08/23 00:58:01;;;;;;;33.13;17.58;;;17.10;99.90;;;;;;4880440;29;20185;-68
2023/08/23 01:00:28;;;;;;;27.17;18.02;;;17.10;99.90;;;;;;4893951;29;20189;-67
2023/08/23 01:02:55;;;;;;;27.60;18.63;;;17.10;99.90;;;;;;4887546;29;20256;-68
2023/08/23 01:05:43;;;;;;;29.98;19.33;;;17.10;99.90;;;;;;4895487;29;20236;-70
2023/08/23 01:08:32;;;;;;;26.42;18.77;;;17.00;99.90;;;;;;4893651;29;20189;-70
2023/08/23 01:11:10;;;;;;;31.75;19.02;;;17.00;99.90;;;;;;4893384;29;20218;-70
2023/08/23 01:13:59;;;;;;;31.48;18.80;;;17.00;99.90;;;;;;4893718;29;20212;-70
2023/08/23 01:16:25;;;;;;;30.52;19.33;;;17.00;99.90;;;;;;4894449;29;20176;-67
2023/08/23 01:18:54;;;;;;;26.77;17.92;;;17.00;99.90;;;;;;4911336;29;20204;-68
2023/08/23 01:21:27;;;;;;;29.10;18.55;;;17.00;99.90;;;;;;4869583;29;20207;-66
2023/08/23 01:23:54;;;;;;;35.15;18.77;;;17.00;99.90;;;;;;4893746;29;20263;-69
2023/08/23 01:26:20;;;;;;;31.98;18.58;;;16.90;99.90;;;;;;4893821;29;20653;-68
2023/08/23 01:28:47;;;;;;;28.20;18.05;;;16.90;99.90;;;;;;4886161;29;20196;-64
2023/08/23 01:31:15;;;;;;;30.10;18.20;;;16.90;99.90;;;;;;4894085;29;20188;-69
2023/08/23 01:33:52;;;;;;;29.35;18.75;;;16.90;99.90;;;;;;4895544;29;20192;-70
2023/08/23 01:36:29;;;;;;;32.03;18.77;;;16.90;99.90;;;;;;4900494;29;20217;-70
2023/08/23 01:38:58;;;;;;;34.20;19.60;;;16.90;99.90;;;;;;4896622;29;20215;-69
2023/08/23 01:41:24;;;;;;;31.40;19.30;;;16.90;99.90;;;;;;4884437;29;20276;-70
2023/08/23 01:43:52;;;;;;;34.97;19.90;;;16.90;99.90;;;;;;4883639;29;20600;-66
2023/08/23 01:46:18;;;;;;;34.55;20.25;;;16.90;99.90;;;;;;4889624;29;20189;-68
2023/08/23 01:48:44;;;;;;;31.35;20.02;;;17.00;99.90;;;;;;4896262;29;20676;-69
2023/08/23 01:51:10;;;;;;;30.17;20.02;;;17.00;99.90;;;;;;4897118;29;20188;-68
2023/08/23 01:53:36;;;;;;;36.08;21.17;;;17.00;99.90;;;;;;4893509;29;20212;-69
2023/08/23 01:56:02;;;;;;;32.85;20.58;;;16.90;99.90;;;;;;4898592;29;20244;-68
2023/08/23 01:58:28;;;;;;;36.03;20.75;;;16.90;99.90;;;;;;4898956;29;20208;-68
2023/08/23 02:00:53;;;;;;;34.10;19.80;;;17.00;99.90;;;;;;4896389;29;20240;-67
2023/08/23 02:03:19;;;;;;;34.45;19.38;;;17.00;99.90;;;;;;4904003;29;20232;-67
2023/08/23 02:05:46;;;;;;;32.22;19.88;;;16.90;99.90;;;;;;4895396;29;20221;-67
2023/08/23 02:08:14;;;;;;;36.47;21.35;;;17.00;99.90;;;;;;4914454;29;20276;-67
2023/08/23 02:10:40;;;;;;;31.95;19.77;;;17.00;99.90;;;;;;4895410;29;20196;-67
2023/08/23 02:13:06;;;;;;;35.65;20.33;;;16.90;99.90;;;;;;4874593;29;20661;-67
2023/08/23 02:15:32;;;;;;;39.38;19.75;;;16.90;99.90;;;;;;4909608;29;20219;-66
2023/08/23 02:17:58;;;;;;;39.53;20.42;;;16.90;99.90;;;;;;4896781;29;20240;-68
2023/08/23 02:20:24;;;;;;;39.90;20.40;;;16.90;99.90;;;;;;4883182;29;20197;-67
2023/08/23 02:22:50;;;;;;;39.42;20.25;;;16.90;99.90;;;;;;4882462;29;20213;-67
2023/08/23 02:25:17;;;;;;;34.47;19.48;;;16.90;99.90;;;;;;4895693;29;20248;-67
2023/08/23 02:27:43;;;;;;;37.60;20.08;;;16.90;99.90;;;;;;4895958;29;20957;-68
2023/08/23 02:30:10;;;;;;;39.50;18.98;;;16.90;99.90;;;;;;4890586;29;20188;-67
2023/08/23 02:32:36;;;;;;;38.38;21.20;;;16.90;99.90;;;;;;4884650;29;20192;-66
2023/08/23 02:35:02;;;;;;;38.92;21.55;;;16.90;99.90;;;;;;4892151;29;20191;-68
2023/08/23 02:37:28;;;;;;;39.25;21.17;;;16.90;99.90;;;;;;4896011;29;20196;-67
2023/08/23 02:39:54;;;;;;;38.05;20.08;;;16.90;99.90;;;;;;4889786;29;20558;-65
2023/08/23 02:42:20;;;;;;;38.00;19.70;;;16.90;99.90;;;;;;4892920;29;20709;-67
2023/08/23 02:44:46;;;;;;;39.15;20.70;;;16.90;99.90;;;;;;4891365;29;20240;-67
2023/08/23 02:47:12;;;;;;;35.42;19.92;;;16.90;99.90;;;;;;4897089;29;20672;-67
2023/08/23 02:49:38;;;;;;;37.42;19.70;;;16.90;99.90;;;;;;4899046;29;20196;-68
2023/08/23 02:52:04;;;;;;;34.47;18.85;;;16.90;99.90;;;;;;4896757;29;20189;-67
2023/08/23 02:54:30;;;;;;;38.65;19.42;;;16.90;99.90;;;;;;4892751;29;20189;-67
2023/08/23 02:56:56;;;;;;;35.00;19.77;;;16.90;99.90;;;;;;4889560;29;20196;-67
2023/08/23 02:59:22;;;;;;;39.67;19.85;;;16.90;99.90;;;;;;4890115;29;20193;-67
2023/08/23 03:01:48;;;;;;;32.78;19.30;;;16.90;99.90;;;;;;4891701;29;20225;-70
2023/08/23 03:04:14;;;;;;;39.60;20.95;;;16.90;99.90;;;;;;4889573;29;20664;-70
2023/08/23 03:06:40;;;;;;;37.88;20.48;;;16.90;99.90;;;;;;4889563;29;20614;-65
2023/08/23 03:09:06;;;;;;;35.83;19.80;;;16.90;99.90;;;;;;4895169;29;20188;-69
2023/08/23 03:11:32;;;;;;;44.78;21.05;;;16.90;99.90;;;;;;4892074;29;20624;-69
2023/08/23 03:13:58;;;;;;;39.03;21.70;;;16.90;99.90;;;;;;4898762;29;20233;-69
2023/08/23 03:16:24;;;;;;;34.72;20.73;;;16.80;99.90;;;;;;4891452;29;20201;-69
2023/08/23 03:18:50;;;;;;;39.00;20.65;;;16.90;99.90;;;;;;4878751;29;20199;-71
2023/08/23 03:21:16;;;;;;;40.40;20.85;;;16.90;99.90;;;;;;4890655;29;20194;-68
2023/08/23 03:23:42;;;;;;;36.75;20.30;;;17.00;99.90;;;;;;4880575;29;20288;-70
2023/08/23 03:26:08;;;;;;;33.45;20.33;;;16.90;99.90;;;;;;4883021;29;20216;-68
2023/08/23 03:28:35;;;;;;;34.88;20.73;;;17.00;99.90;;;;;;4894285;29;20208;-69
2023/08/23 03:31:05;;;;;;;31.50;19.10;;;17.00;99.90;;;;;;4896332;29;20201;-68
2023/08/23 03:33:31;;;;;;;33.25;19.45;;;17.00;99.90;;;;;;4896290;29;20642;-69
2023/08/23 03:35:58;;;;;;;32.38;19.02;;;17.10;99.90;;;;;;4896582;29;20261;-70
2023/08/23 03:38:25;;;;;;;33.47;19.98;;;17.10;99.90;;;;;;4897881;29;20189;-70
2023/08/23 03:40:54;;;;;;;34.38;19.48;;;17.10;99.90;;;;;;4906694;29;20185;-70
2023/08/23 03:43:20;;;;;;;30.77;18.60;;;17.10;99.90;;;;;;4897301;29;20228;-67
2023/08/23 03:45:50;;;;;;;27.15;17.60;;;17.10;99.90;;;;;;4892942;29;20830;-67
2023/08/23 03:48:17;;;;;;;30.67;17.90;;;17.10;99.90;;;;;;4885425;29;20192;-66
2023/08/23 03:50:43;;;;;;;26.20;16.65;;;17.20;99.90;;;;;;4896546;29;20262;-70
2023/08/23 03:53:09;;;;;;;26.50;16.88;;;17.20;99.90;;;;;;4893288;29;20221;-68
2023/08/23 03:55:37;;;;;;;26.95;16.00;;;17.10;99.90;;;;;;4864923;29;20212;-68
2023/08/23 03:58:05;;;;;;;23.10;16.00;;;17.10;99.90;;;;;;4894572;29;20244;-69
2023/08/23 04:00:32;;;;;;;22.90;15.20;;;17.10;99.90;;;;;;4896093;29;20193;-67
2023/08/23 04:02:58;;;;;;;21.55;15.20;;;17.10;99.90;;;;;;4890703;29;20224;-66
2023/08/23 04:05:24;;;;;;;20.38;15.23;;;17.10;99.90;;;;;;4876717;29;20562;-67
2023/08/23 04:07:50;;;;;;;23.77;15.45;;;17.10;99.90;;;;;;4908930;29;20193;-67
2023/08/23 04:10:16;;;;;;;24.02;15.10;;;17.10;99.90;;;;;;4896632;29;20301;-67
2023/08/23 04:12:42;;;;;;;21.30;14.85;;;17.10;99.90;;;;;;4894990;29;20196;-68
2023/08/23 04:15:09;;;;;;;23.08;14.90;;;17.10;99.90;;;;;;4879180;29;20564;-68
2023/08/23 04:17:34;;;;;;;21.00;14.13;;;17.10;99.90;;;;;;4890842;29;20192;-66
2023/08/23 04:20:01;;;;;;;25.20;15.48;;;17.10;99.90;;;;;;4879394;29;20200;-68
2023/08/23 04:22:30;;;;;;;21.98;15.80;;;17.10;99.90;;;;;;4891163;29;20232;-68
2023/08/23 04:24:56;;;;;;;24.67;16.30;;;17.10;99.90;;;;;;4880751;29;20188;-68
2023/08/23 04:27:23;;;;;;;22.85;15.57;;;17.10;99.90;;;;;;4896469;29;20260;-67
2023/08/23 04:29:49;;;;;;;30.02;17.38;;;17.00;99.90;;;;;;4902596;29;20682;-68
2023/08/23 04:32:15;;;;;;;25.90;15.25;;;17.00;99.90;;;;;;4891006;29;20658;-64
2023/08/23 04:34:41;;;;;;;26.98;15.98;;;17.00;99.90;;;;;;4896106;29;20189;-67
2023/08/23 04:37:08;;;;;;;29.55;16.67;;;17.00;99.90;;;;;;4898096;29;20279;-66
2023/08/23 04:39:34;;;;;;;25.45;16.30;;;17.00;99.90;;;;;;4894731;29;20200;-67
2023/08/23 04:42:00;;;;;;;25.63;16.77;;;17.00;99.90;;;;;;4895396;29;20216;-66
2023/08/23 04:44:29;;;;;;;27.25;16.60;;;17.00;99.90;;;;;;4888688;29;20909;-67
2023/08/23 04:46:55;;;;;;;29.55;18.05;;;17.00;99.90;;;;;;4887033;29;20237;-68
2023/08/23 04:49:23;;;;;;;32.65;17.63;;;17.00;99.90;;;;;;4873407;29;20197;-62
2023/08/23 04:51:49;;;;;;;33.58;19.58;;;17.00;99.90;;;;;;4886618;29;20275;-66
2023/08/23 04:54:15;;;;;;;35.40;20.63;;;17.00;99.90;;;;;;4896274;29;20324;-66
2023/08/23 04:56:41;;;;;;;35.70;21.85;;;17.00;99.90;;;;;;4897023;29;20200;-66
2023/08/23 04:59:07;;;;;;;38.20;24.45;;;17.00;99.90;;;;;;4896013;29;20275;-64
2023/08/23 05:01:33;;;;;;;38.17;23.40;;;17.00;99.90;;;;;;4894377;29;20242;-67
2023/08/23 05:03:59;;;;;;;39.33;23.33;;;17.00;99.90;;;;;;4887171;29;20197;-68
2023/08/23 05:06:25;;;;;;;38.75;23.70;;;17.10;99.90;;;;;;4900018;29;20607;-69
2023/08/23 05:08:53;;;;;;;38.63;23.73;;;17.10;99.90;;;;;;4893498;29;20196;-70
2023/08/23 05:11:23;;;;;;;39.40;24.52;;;17.10;99.90;;;;;;4894974;29;20279;-70
2023/08/23 05:13:49;;;;;;;39.13;23.80;;;17.10;99.90;;;;;;4892510;29;20189;-71
2023/08/23 05:16:15;;;;;;;36.90;22.52;;;17.20;99.90;;;;;;4894543;29;20191;-71
2023/08/23 05:18:41;;;;;;;40.15;25.15;;;17.20;99.90;;;;;;4891351;29;20192;-69
2023/08/23 05:21:09;;;;;;;38.85;24.45;;;17.20;99.90;;;;;;4875745;29;20279;-66
2023/08/23 05:23:35;;;;;;;43.72;25.02;;;17.20;99.90;;;;;;4887140;29;20308;-70
2023/08/23 05:26:02;;;;;;;44.92;26.52;;;17.30;99.90;;;;;;4875532;29;20660;-70
2023/08/23 05:28:29;;;;;;;46.65;27.50;;;17.30;99.90;;;;;;4888522;29;20184;-69
2023/08/23 05:30:55;;;;;;;46.58;27.83;;;17.30;99.90;;;;;;4906072;29;20641;-70
2023/08/23 05:33:26;;;;;;;46.25;28.80;;;17.40;99.90;;;;;;4888202;29;20692;-67
2023/08/23 05:35:52;;;;;;;53.80;29.65;;;17.40;99.90;;;;;;4884983;29;20272;-66
2023/08/23 05:38:19;;;;;;;50.05;30.02;;;17.40;99.90;;;;;;4893233;29;20291;-71
2023/08/23 05:40:45;;;;;;;57.35;28.92;;;17.50;99.90;;;;;;4909873;29;20200;-71
2023/08/23 05:43:13;;;;;;;44.72;27.58;;;17.50;99.90;;;;;;4894244;29;20307;-70
2023/08/23 05:45:39;;;;;;;47.55;27.98;;;17.50;99.90;;;;;;4890301;29;20325;-71
2023/08/23 05:48:05;;;;;;;45.70;26.52;;;17.50;99.90;;;;;;4891986;29;20196;-71
2023/08/23 05:50:31;;;;;;;46.10;27.73;;;17.50;99.90;;;;;;4894836;29;20581;-74
2023/08/23 05:52:57;;;;;;;44.88;27.50;;;17.50;99.90;;;;;;4895428;29;20400;-71
2023/08/23 05:55:23;;;;;;;43.05;25.85;;;17.60;99.90;;;;;;4894605;29;20291;-71
2023/08/23 05:57:49;;;;;;;45.63;26.05;;;17.60;99.90;;;;;;4890719;29;20201;-71
2023/08/23 06:00:15;;;;;;;42.67;25.35;;;17.60;99.90;;;;;;4874366;29;20642;-70
2023/08/23 06:02:43;;;;;;;36.35;24.05;;;17.70;99.90;;;;;;4880641;29;20284;-69
2023/08/23 06:05:13;;;;;;;40.60;24.45;;;17.80;99.90;;;;;;4893035;29;20201;-68
2023/08/23 06:07:40;;;;;;;36.47;22.98;;;17.90;99.90;;;;;;4895938;29;20228;-69
2023/08/23 06:10:07;;;;;;;34.90;22.08;;;17.90;99.90;;;;;;4891300;29;20201;-65
2023/08/23 06:12:33;;;;;;;37.63;21.92;;;18.10;99.90;;;;;;4883110;29;20298;-68
2023/08/23 06:14:59;;;;;;;28.88;20.67;;;18.10;99.90;;;;;;4891850;29;20185;-68
2023/08/23 06:17:25;;;;;;;33.20;20.45;;;18.20;99.90;;;;;;4882908;29;20203;-66
2023/08/23 06:19:51;;;;;;;34.60;19.63;;;18.30;99.90;;;;;;4879602;29;20229;-65
2023/08/23 06:22:18;;;;;;;27.17;18.38;;;18.40;99.90;;;;;;4894930;29;20244;-67
2023/08/23 06:24:44;;;;;;;33.28;19.30;;;18.50;99.90;;;;;;4896294;29;20263;-84
2023/08/23 06:27:10;;;;;;;25.65;17.88;;;18.70;99.90;;;;;;4885217;29;20303;-65
2023/08/23 06:29:39;;;;;;;20.80;15.65;;;18.70;99.90;;;;;;4880878;29;20283;-68
2023/08/23 06:32:07;;;;;;;22.42;15.70;;;18.70;99.90;;;;;;4881489;29;20185;-67
2023/08/23 06:34:33;;;;;;;20.77;15.35;;;18.80;99.90;;;;;;4883913;29;20267;-70
2023/08/23 06:36:59;;;;;;;21.92;15.82;;;18.70;99.90;;;;;;4891512;29;20204;-69
2023/08/23 06:39:25;;;;;;;24.98;15.55;;;18.70;99.90;;;;;;4894212;29;20193;-71
2023/08/23 06:41:51;;;;;;;22.52;16.08;;;18.70;99.90;;;;;;4885331;29;20679;-68
2023/08/23 06:44:17;;;;;;;26.80;18.08;;;18.70;99.90;;;;;;4883717;29;20208;-68
2023/08/23 06:46:43;;;;;;;27.73;17.13;;;18.70;99.90;;;;;;4891320;29;20324;-70
2023/08/23 06:49:10;;;;;;;21.25;16.40;;;18.70;99.90;;;;;;4883239;29;20220;-68
2023/08/23 06:51:36;;;;;;;24.77;17.50;;;18.80;99.90;;;;;;4893939;29;20196;-65
2023/08/23 06:54:02;;;;;;;25.50;18.20;;;18.80;99.90;;;;;;4878471;29;20203;-70
2023/08/23 06:56:29;;;;;;;25.55;17.77;;;18.90;99.90;;;;;;4892979;29;20214;-69
2023/08/23 06:58:55;;;;;;;25.63;18.58;;;18.90;99.90;;;;;;4890470;29;20193;-67
2023/08/23 07:01:21;;;;;;;24.65;19.98;;;19.00;99.90;;;;;;4895464;29;20184;-72
2023/08/23 07:03:47;;;;;;;25.20;18.85;;;19.00;99.90;;;;;;4892357;29;20870;-75
2023/08/23 07:06:15;;;;;;;32.58;19.42;;;19.10;99.90;;;;;;4895910;29;20189;-75
2023/08/23 07:08:42;;;;;;;27.95;19.35;;;19.10;99.90;;;;;;4897368;29;20721;-70
2023/08/23 07:11:08;;;;;;;27.15;18.65;;;19.20;99.90;;;;;;4890785;29;20646;-71
2023/08/23 07:13:36;;;;;;;27.05;18.65;;;19.20;99.90;;;;;;4878521;29;20189;-70
2023/08/23 07:16:03;;;;;;;28.80;19.40;;;19.20;99.90;;;;;;4908877;29;20200;-72
2023/08/23 07:18:29;;;;;;;27.02;18.00;;;19.30;99.90;;;;;;4898345;29;20692;-71
2023/08/23 07:20:56;;;;;;;24.23;18.20;;;19.40;99.90;;;;;;4885671;29;20201;-74
2023/08/23 07:23:22;;;;;;;31.70;16.17;;;19.40;99.90;;;;;;4892344;29;20737;-67
2023/08/23 07:25:47;;;;;;;27.55;16.48;;;19.40;99.90;;;;;;4894119;29;20287;-72
2023/08/23 07:28:13;;;;;;;28.52;16.80;;;19.50;99.90;;;;;;4898357;29;20633;-69
2023/08/23 07:30:49;;;;;;;27.73;16.73;;;19.60;99.90;;;;;;4893178;29;20201;-72
2023/08/23 07:33:16;;;;;;;23.80;15.32;;;19.70;99.90;;;;;;4885970;29;20283;-71
2023/08/23 07:35:42;;;;;;;20.13;14.50;;;19.80;99.90;;;;;;4880671;29;20193;-69
2023/08/23 07:38:08;;;;;;;18.95;14.10;;;19.90;99.90;;;;;;4888096;29;20608;-71
2023/08/23 07:40:38;;;;;;;21.08;13.10;;;20.00;99.90;;;;;;4896936;29;20194;-66
2023/08/23 07:43:04;;;;;;;23.70;13.15;;;20.10;99.90;;;;;;4897700;29;20220;-68
2023/08/23 07:45:31;;;;;;;17.50;12.98;;;20.20;99.90;;;;;;4898114;29;20315;-72
2023/08/23 07:47:57;;;;;;;17.70;12.75;;;20.30;99.90;;;;;;4889546;29;20620;-71
2023/08/23 07:50:23;;;;;;;18.20;13.13;;;20.40;99.90;;;;;;4889458;29;20200;-71
2023/08/23 07:52:49;;;;;;;18.80;12.65;;;20.50;99.90;;;;;;4897613;29;20244;-71
2023/08/23 07:55:15;;;;;;;17.48;11.40;;;20.60;99.90;;;;;;4891034;29;20192;-66
2023/08/23 07:57:41;;;;;;;15.75;11.20;;;20.70;99.90;;;;;;4888303;29;20602;-71
2023/08/23 08:00:09;;;;;;;17.90;10.80;;;20.80;99.90;;;;;;4895280;29;20196;-70
2023/08/23 08:02:35;;;;;;;15.15;10.68;;;20.80;99.90;;;;;;4896508;29;20240;-72
2023/08/23 08:05:01;;;;;;;16.25;11.00;;;20.80;99.90;;;;;;4897345;29;20714;-70
2023/08/23 08:07:29;;;;;;;14.73;10.77;;;20.90;99.90;;;;;;4890851;29;20276;-70
2023/08/23 08:09:55;;;;;;;16.15;11.27;;;20.90;99.90;;;;;;4887567;29;20196;-69
2023/08/23 08:12:21;;;;;;;15.52;10.90;;;20.90;99.90;;;;;;4893667;29;20189;-70
2023/08/23 08:14:46;;;;;;;17.05;10.93;;;21.00;99.90;;;;;;4896562;29;20216;-71
2023/08/23 08:17:12;;;;;;;13.88;10.25;;;21.00;99.90;;;;;;4895520;29;20188;-72
2023/08/23 08:19:38;;;;;;;16.23;10.68;;;21.10;99.90;;;;;;4902337;29;20283;-69
2023/08/23 08:22:04;;;;;;;16.48;10.38;;;21.20;99.90;;;;;;4879493;29;20213;-71
2023/08/23 08:24:30;;;;;;;10.65;8.70;;;21.30;99.90;;;;;;4880816;29;20240;-70
2023/08/23 08:26:56;;;;;;;14.30;10.27;;;21.30;99.90;;;;;;4896141;29;20538;-70
2023/08/23 08:29:22;;;;;;;16.88;11.02;;;21.30;99.90;;;;;;4908998;29;20665;-70
2023/08/23 08:31:50;;;;;;;16.13;10.57;;;21.40;99.90;;;;;;4886349;29;20200;-71
2023/08/23 08:34:17;;;;;;;18.35;11.07;;;21.40;99.90;;;;;;4891213;29;20204;-70
2023/08/23 08:36:44;;;;;;;16.13;11.32;;;21.50;99.90;;;;;;4881996;29;20253;-69
2023/08/23 08:39:10;;;;;;;20.90;11.00;;;21.60;99.90;;;;;;4877217;29;20185;-70
2023/08/23 08:41:36;;;;;;;15.68;9.25;;;21.60;99.90;;;;;;4891584;29;20203;-69
2023/08/23 08:44:03;;;;;;;14.48;9.10;;;21.70;99.90;;;;;;4879577;29;20710;-71
2023/08/23 08:46:29;;;;;;;18.02;10.43;;;21.80;99.90;;;;;;4879312;29;20236;-70
2023/08/23 08:48:55;;;;;;;13.32;9.57;;;22.00;99.90;;;;;;4893337;29;20211;-72
2023/08/23 08:51:21;;;;;;;15.85;10.18;;;22.10;99.90;;;;;;4886080;29;20189;-73
2023/08/23 08:53:49;;;;;;;15.63;10.27;;;22.20;99.90;;;;;;4883893;29;20193;-70
2023/08/23 08:56:17;;;;;;;16.60;10.85;;;22.30;99.90;;;;;;4896697;29;20205;-69
2023/08/23 08:58:44;;;;;;;19.50;10.65;;;22.40;99.90;;;;;;4884361;29;20188;-73
2023/08/23 09:01:13;;;;;;;16.65;9.88;;;22.50;99.90;;;;;;4893057;29;20287;-72
2023/08/23 09:03:40;;;;;;;17.15;9.68;;;22.70;99.90;;;;;;4881421;29;20221;-69
2023/08/23 09:06:07;;;;;;;14.82;9.63;;;22.80;99.90;;;;;;4893790;29;20197;-70
2023/08/23 09:08:33;;;;;;;16.35;10.10;;;22.90;99.90;;;;;;4906112;29;20267;-70
2023/08/23 09:10:59;;;;;;;12.57;8.93;;;23.00;99.90;;;;;;4893299;29;20197;-65
2023/08/23 09:13:25;;;;;;;17.77;8.23;;;23.10;99.90;;;;;;4883044;29;20248;-69
2023/08/23 09:15:52;;;;;;;14.63;8.65;;;23.20;99.90;;;;;;4886009;29;20280;-69
2023/08/23 09:18:19;;;;;;;14.38;8.40;;;23.30;99.90;;;;;;4882166;29;20201;-70
2023/08/23 09:20:45;;;;;;;16.27;9.38;;;23.40;99.90;;;;;;4903886;29;20309;-68
2023/08/23 09:23:11;;;;;;;10.65;8.27;;;23.50;99.90;;;;;;4877440;29;20252;-69
2023/08/23 09:25:37;;;;;;;15.98;8.05;;;23.50;99.90;;;;;;4881301;29;20221;-67
2023/08/23 09:28:03;;;;;;;13.45;8.38;;;23.50;99.90;;;;;;4883909;29;20192;-67
2023/08/23 09:30:29;;;;;;;13.90;8.38;;;23.60;99.90;;;;;;4883131;29;20672;-68
2023/08/23 09:32:57;;;;;;;12.98;8.30;;;23.60;99.90;;;;;;4894644;29;20192;-63
2023/08/23 09:35:23;;;;;;;18.70;9.90;;;23.70;99.90;;;;;;4882704;29;20187;-69
2023/08/23 09:37:49;;;;;;;13.10;8.73;;;23.70;99.90;;;;;;4885864;29;20311;-69
2023/08/23 09:40:22;;;;;;;17.38;11.35;;;23.80;99.90;;;;;;4893833;29;20248;-70
2023/08/23 09:42:49;;;;;;;16.95;10.18;;;23.90;99.90;;;;;;4894845;29;20256;-69
2023/08/23 09:45:23;;;;;;;14.10;10.05;;;23.90;99.90;;;;;;4900658;29;20272;-69
2023/08/23 09:47:53;;;;;;;19.88;9.70;;;24.00;99.90;;;;;;4893147;29;20313;-70
2023/08/23 09:50:24;;;;;;;15.77;9.95;;;24.00;99.90;;;;;;4891203;29;20603;-70
2023/08/23 09:53:12;;;;;;;17.25;10.45;;;24.10;99.90;;;;;;4894680;29;20558;-70
2023/08/23 09:55:39;;;;;;;17.42;10.40;;;24.20;99.90;;;;;;4907311;29;20567;-69
2023/08/23 09:58:06;;;;;;;15.55;10.88;;;24.20;99.90;;;;;;4895903;29;20252;-69
2023/08/23 10:00:33;;;;;;;14.88;10.60;;;24.20;99.90;;;;;;4889862;29;20279;-71
2023/08/23 10:02:59;;;;;;;17.98;11.05;;;24.20;99.90;;;;;;4883447;29;20591;-71
2023/08/23 10:05:26;;;;;;;16.33;10.50;;;24.20;99.90;;;;;;4904122;29;20190;-69
2023/08/23 10:07:56;;;;;;;14.80;11.20;;;24.10;99.90;;;;;;4891974;29;20646;-68
2023/08/23 10:10:22;;;;;;;14.75;10.65;;;24.10;99.90;;;;;;4879261;29;20195;-70
2023/08/23 10:12:51;;;;;;;15.45;9.23;;;24.00;99.90;;;;;;4895408;29;20198;-70
2023/08/23 10:15:28;;;;;;;18.67;9.48;;;24.00;99.90;;;;;;4895462;29;20540;-70
2023/08/23 10:17:55;;;;;;;19.27;12.02;;;24.00;99.90;;;;;;4892569;29;20209;-69
2023/08/23 10:20:23;;;;;;;17.13;11.57;;;24.10;99.90;;;;;;4899666;29;20197;-71
2023/08/23 10:22:54;;;;;;;16.88;12.70;;;24.00;99.90;;;;;;4897814;29;20248;-71
2023/08/23 10:25:21;;;;;;;20.67;11.48;;;24.00;99.90;;;;;;4885206;29;20541;-69
2023/08/23 10:27:49;;;;;;;17.75;9.13;;;23.90;99.90;;;;;;4887402;29;20246;-69
2023/08/23 10:30:39;;;;;;;12.00;8.07;;;23.90;99.90;;;;;;4892726;29;20244;-69
2023/08/23 10:33:09;;;;;;;13.38;8.07;;;23.90;99.90;;;;;;4888222;29;20251;-71
2023/08/23 10:35:36;;;;;;;14.15;8.15;;;23.90;99.90;;;;;;4896436;29;20200;-72
2023/08/23 10:38:06;;;;;;;12.88;8.27;;;23.90;99.90;;;;;;4888440;29;20185;-69
2023/08/23 10:40:34;;;;;;;14.52;8.60;;;24.00;99.90;;;;;;4898331;29;20275;-70
2023/08/23 10:43:11;;;;;;;11.55;7.90;;;24.00;99.90;;;;;;4898667;29;20228;-70
2023/08/23 10:46:02;;;;;;;13.40;8.07;;;24.10;99.90;;;;;;4890641;29;20259;-69
2023/08/23 10:48:28;;;;;;;9.88;5.32;;;24.20;99.90;;;;;;4891855;29;20224;-68
2023/08/23 10:50:54;;;;;;;10.68;5.10;;;24.20;99.90;;;;;;4895772;29;20188;-71
2023/08/23 10:53:21;;;;;;;10.05;5.72;;;24.20;99.90;;;;;;4912856;29;20195;-70
2023/08/23 10:55:48;;;;;;;17.52;7.55;;;24.20;99.90;;;;;;4896602;29;20239;-70
2023/08/23 10:58:14;;;;;;;11.98;7.47;;;24.30;99.90;;;;;;4894123;29;20372;-70
2023/08/23 11:00:42;;;;;;;15.52;6.95;;;24.30;99.90;;;;;;4896247;29;20215;-68
2023/08/23 11:03:10;;;;;;;11.30;5.90;;;24.30;99.90;;;;;;4894366;29;20220;-70
2023/08/23 11:05:36;;;;;;;12.05;5.53;;;24.40;99.90;;;;;;4886407;29;20192;-70
2023/08/23 11:08:02;;;;;;;12.18;6.45;;;24.40;99.90;;;;;;4898478;29;20681;-71
2023/08/23 11:10:29;;;;;;;13.07;5.35;;;24.40;99.90;;;;;;4897786;29;20197;-69
2023/08/23 11:12:55;;;;;;;12.45;6.30;;;24.40;99.90;;;;;;4889971;29;20253;-70
2023/08/23 11:15:22;;;;;;;7.10;5.15;;;24.40;99.90;;;;;;4882202;29;20330;-71
2023/08/23 11:17:48;;;;;;;11.93;5.40;;;24.50;99.90;;;;;;4890389;29;20209;-72
2023/08/23 11:20:17;;;;;;;15.07;5.50;;;24.40;99.90;;;;;;4898199;29;20555;-71
2023/08/23 11:22:43;;;;;;;11.77;5.88;;;24.50;99.90;;;;;;4895892;29;20683;-68
2023/08/23 11:25:09;;;;;;;11.15;6.07;;;24.60;99.90;;;;;;4885358;29;20570;-71
2023/08/23 11:27:35;;;;;;;11.57;5.43;;;24.60;99.90;;;;;;4879483;29;20193;-71
2023/08/23 11:30:02;;;;;;;15.25;5.45;;;24.70;99.90;;;;;;4897074;29;20197;-70
2023/08/23 11:32:31;;;;;;;9.70;4.20;;;24.70;99.90;;;;;;4896508;29;20223;-71
2023/08/23 11:34:57;;;;;;;9.30;3.60;;;24.90;99.90;;;;;;4889170;29;20219;-71
2023/08/23 11:37:24;;;;;;;9.50;3.33;;;24.90;99.90;;;;;;4894834;29;20193;-72
2023/08/23 11:40:07;;;;;;;8.55;3.20;;;25.00;99.90;;;;;;4896726;29;20184;-72
2023/08/23 11:42:36;;;;;;;10.85;2.97;;;25.10;99.90;;;;;;4896611;29;20736;-70
2023/08/23 11:45:06;;;;;;;5.90;2.80;;;25.20;99.90;;;;;;4891086;29;20244;-73
2023/08/23 11:47:34;;;;;;;7.15;3.13;;;25.20;99.90;;;;;;4888668;29;20345;-73
2023/08/23 11:50:00;;;;;;;8.27;3.13;;;25.30;99.90;;;;;;4884527;29;20307;-71
2023/08/23 11:52:30;;;;;;;5.63;3.30;;;25.20;99.90;;;;;;4897878;29;20199;-71
2023/08/23 11:54:57;;;;;;;7.90;2.88;;;25.20;99.90;;;;;;4892423;29;20559;-69
2023/08/23 11:57:23;;;;;;;6.13;2.88;;;25.00;99.90;;;;;;4897964;29;20188;-70
2023/08/23 11:59:49;;;;;;;8.82;2.97;;;24.90;99.90;;;;;;4896456;29;20203;-70
2023/08/23 12:02:15;;;;;;;5.47;2.63;;;24.80;99.90;;;;;;4897513;29;20223;-71
2023/08/23 12:04:42;;;;;;;6.13;2.60;;;24.80;99.90;;;;;;4911115;29;20197;-71
2023/08/23 12:07:09;;;;;;;6.95;3.00;;;24.70;99.90;;;;;;4888843;29;20197;-71
2023/08/23 12:09:36;;;;;;;9.38;3.42;;;24.60;99.90;;;;;;4890845;29;20207;-71
2023/08/23 12:12:03;;;;;;;9.60;2.90;;;24.60;99.90;;;;;;4894273;29;20193;-71
2023/08/23 12:14:29;;;;;;;6.72;3.03;;;24.50;99.90;;;;;;4896914;29;20192;-67
2023/08/23 12:16:55;;;;;;;8.40;3.42;;;24.30;99.90;;;;;;4891072;29;20213;-70
2023/08/23 12:19:22;;;;;;;7.00;3.03;;;24.20;99.90;;;;;;4899743;29;20235;-71
2023/08/23 12:21:49;;;;;;;6.53;3.10;;;24.20;99.90;;;;;;4896197;29;20212;-66
2023/08/23 12:24:16;;;;;;;7.47;2.90;;;24.10;99.90;;;;;;4896149;29;20650;-70
2023/08/23 12:26:42;;;;;;;8.75;2.30;;;24.20;99.90;;;;;;4897785;29;20249;-69
2023/08/23 12:29:08;;;;;;;8.27;2.40;;;24.20;99.90;;;;;;4901727;29;20682;-66
2023/08/23 12:31:35;;;;;;;5.75;2.20;;;24.30;99.90;;;;;;4892110;29;20196;-71